createdAt,value
2018-09-23T00:01:17.644Z,15.21
2018-09-23T00:03:47.047Z,15.18
2018-09-23T00:06:15.613Z,15.03
2018-09-23T00:08:43.846Z,14.80
2018-09-23T00:11:12.085Z,14.81
2018-09-23T00:13:40.383Z,14.91
2018-09-23T00:16:08.631Z,14.73
2018-09-23T00:18:37.112Z,14.67
2018-09-23T00:21:05.589Z,14.43
2018-09-23T00:23:33.834Z,14.24
2018-09-23T00:26:02.938Z,14.17
2018-09-23T00:28:32.161Z,14.09
2018-09-23T00:31:00.722Z,14.18
2018-09-23T00:33:29.100Z,14.11
2018-09-23T00:35:57.391Z,13.99
2018-09-23T00:38:26.423Z,13.98
2018-09-23T00:40:54.685Z,14.06
2018-09-23T00:43:22.916Z,13.99
2018-09-23T00:45:51.123Z,14.07
2018-09-23T00:48:19.693Z,14.10
2018-09-23T00:50:47.931Z,13.96
2018-09-23T00:53:16.308Z,13.88
2018-09-23T00:55:45.494Z,13.87
2018-09-23T00:58:14.281Z,13.88
2018-09-23T01:00:42.628Z,13.97
2018-09-23T01:03:10.887Z,13.88
2018-09-23T01:05:39.115Z,13.71
2018-09-23T01:08:07.344Z,13.68
2018-09-23T01:10:35.640Z,13.70
2018-09-23T01:13:04.104Z,13.55
2018-09-23T01:15:32.333Z,13.58
2018-09-23T01:18:01.281Z,13.57
2018-09-23T01:20:30.225Z,13.70
2018-09-23T01:22:58.868Z,13.59
2018-09-23T01:25:27.598Z,13.51
2018-09-23T01:27:55.891Z,13.55
2018-09-23T01:30:24.141Z,13.47
2018-09-23T01:32:52.978Z,13.34
2018-09-23T01:35:21.664Z,13.36
2018-09-23T01:37:50.144Z,13.23
2018-09-23T01:40:18.679Z,13.30
2018-09-23T01:42:46.919Z,13.41
2018-09-23T01:45:18.165Z,13.30
2018-09-23T01:47:49.124Z,13.04
2018-09-23T01:50:20.203Z,13.15
2018-09-23T01:52:49.031Z,13.30
2018-09-23T01:55:17.320Z,13.30
2018-09-23T01:57:45.567Z,13.25
2018-09-23T02:00:14.141Z,13.23
2018-09-23T02:02:42.771Z,13.20
2018-09-23T02:05:11.275Z,13.31
2018-09-23T02:07:40.042Z,13.32
2018-09-23T02:10:08.327Z,13.37
2018-09-23T02:12:36.533Z,13.39
2018-09-23T02:15:05.395Z,13.44
2018-09-23T02:17:33.770Z,13.43
2018-09-23T02:20:02.413Z,13.36
2018-09-23T02:22:30.653Z,13.29
2018-09-23T02:24:58.918Z,13.27
2018-09-23T02:27:28.239Z,13.24
2018-09-23T02:29:56.818Z,13.35
2018-09-23T02:32:26.233Z,13.43
2018-09-23T02:34:56.097Z,13.38
2018-09-23T02:37:24.543Z,13.32
2018-09-23T02:39:54.376Z,13.41
2018-09-23T02:42:23.729Z,13.33
2018-09-23T02:44:52.728Z,13.29
2018-09-23T02:47:21.025Z,13.43
2018-09-23T02:49:49.339Z,13.43
2018-09-23T02:52:18.244Z,13.40
2018-09-23T02:54:46.612Z,13.39
2018-09-23T02:57:14.916Z,13.43
2018-09-23T02:59:43.480Z,13.39
2018-09-23T03:02:12.028Z,13.38
2018-09-23T03:04:40.374Z,13.27
2018-09-23T03:07:12.720Z,13.39
2018-09-23T03:09:40.990Z,13.36
2018-09-23T03:12:10.259Z,13.41
2018-09-23T03:14:38.884Z,13.35
2018-09-23T03:17:08.145Z,13.49
2018-09-23T03:19:36.439Z,13.57
2018-09-23T03:22:04.976Z,13.51
2018-09-23T03:24:33.771Z,13.47
2018-09-23T03:27:02.360Z,13.53
2018-09-23T03:29:30.784Z,13.56
2018-09-23T03:31:59.022Z,13.43
2018-09-23T03:34:27.337Z,13.51
2018-09-23T03:36:56.516Z,13.54
2018-09-23T03:39:24.794Z,13.59
2018-09-23T03:41:53.140Z,13.59
2018-09-23T03:44:21.404Z,13.58
2018-09-23T03:46:49.621Z,13.50
2018-09-23T03:49:18.182Z,13.50
2018-09-23T03:51:46.409Z,13.57
2018-09-23T03:54:15.537Z,13.62
2018-09-23T03:56:44.300Z,13.68
2018-09-23T03:59:12.876Z,13.58
2018-09-23T04:01:41.117Z,13.59
2018-09-23T04:04:10.078Z,13.33
2018-09-23T04:06:38.379Z,13.48
2018-09-23T04:09:07.819Z,13.38
2018-09-23T04:11:36.099Z,13.52
2018-09-23T04:14:04.460Z,13.44
2018-09-23T04:16:32.876Z,13.45
2018-09-23T04:19:01.397Z,13.45
2018-09-23T04:21:29.669Z,13.78
2018-09-23T04:23:57.942Z,13.64
2018-09-23T04:26:26.138Z,13.80
2018-09-23T04:28:54.393Z,13.74
2018-09-23T04:31:22.633Z,13.62
2018-09-23T04:33:51.292Z,13.67
2018-09-23T04:36:20.131Z,13.77
2018-09-23T04:38:49.110Z,13.77
2018-09-23T04:41:17.330Z,13.72
2018-09-23T04:43:45.621Z,13.55
2018-09-23T04:46:14.315Z,13.70
2018-09-23T04:48:42.845Z,13.82
2018-09-23T04:51:11.420Z,13.84
2018-09-23T04:53:40.826Z,13.94
2018-09-23T04:56:09.468Z,13.92
2018-09-23T04:58:38.014Z,13.82
2018-09-23T05:01:06.275Z,13.80
2018-09-23T05:03:34.580Z,13.94
2018-09-23T05:06:02.823Z,14.00
2018-09-23T05:08:31.130Z,13.96
2018-09-23T05:10:59.362Z,14.00
2018-09-23T05:13:27.917Z,14.03
2018-09-23T05:15:56.204Z,14.30
2018-09-23T05:18:24.412Z,14.46
2018-09-23T05:20:52.777Z,14.84
2018-09-23T05:23:21.022Z,14.93
2018-09-23T05:25:49.869Z,15.18
2018-09-23T05:28:18.535Z,15.28
2018-09-23T05:30:46.812Z,15.43
2018-09-23T05:33:15.032Z,15.63
2018-09-23T05:35:43.280Z,15.78
2018-09-23T05:38:11.948Z,15.85
2018-09-23T05:40:40.636Z,15.87
2018-09-23T05:43:09.016Z,15.84
2018-09-23T05:45:37.186Z,16.07
2018-09-23T05:48:05.713Z,16.19
2018-09-23T05:50:34.266Z,16.27
2018-09-23T05:53:02.516Z,16.32
2018-09-23T05:55:30.740Z,16.30
2018-09-23T05:57:58.936Z,16.38
2018-09-23T06:00:29.832Z,16.48
2018-09-23T06:02:58.114Z,16.60
2018-09-23T06:05:26.300Z,16.63
2018-09-23T06:07:56.683Z,16.81
2018-09-23T06:10:25.479Z,16.86
2018-09-23T06:12:54.506Z,17.02
2018-09-23T06:15:22.738Z,17.06
2018-09-23T06:17:51.028Z,17.09
2018-09-23T06:20:19.508Z,17.28
2018-09-23T06:22:47.792Z,17.37
2018-09-23T06:25:16.115Z,17.57
2018-09-23T06:27:44.464Z,17.68
2018-09-23T06:30:12.959Z,17.69
2018-09-23T06:32:41.188Z,17.75
2018-09-23T06:35:09.408Z,17.79
2018-09-23T06:37:37.929Z,17.91
2018-09-23T06:40:06.688Z,18.18
2018-09-23T06:42:34.895Z,18.19
2018-09-23T06:45:03.444Z,18.36
2018-09-23T06:47:31.680Z,18.40
2018-09-23T06:49:59.995Z,18.41
2018-09-23T06:52:28.228Z,18.41
2018-09-23T06:54:56.514Z,18.48
2018-09-23T06:57:25.042Z,18.45
2018-09-23T06:59:53.204Z,18.47
2018-09-23T07:02:21.449Z,18.72
2018-09-23T07:04:50.508Z,18.89
2018-09-23T07:07:19.014Z,18.78
2018-09-23T07:09:47.201Z,18.93
2018-09-23T07:12:15.427Z,19.11
2018-09-23T07:14:43.744Z,19.42
2018-09-23T07:17:11.941Z,19.53
2018-09-23T07:19:40.212Z,19.59
2018-09-23T07:22:08.431Z,19.62
2018-09-23T07:24:36.664Z,19.66
2018-09-23T07:27:05.160Z,19.88
2018-09-23T07:29:33.629Z,19.83
2018-09-23T07:32:02.229Z,19.99
2018-09-23T07:34:30.771Z,20.04
2018-09-23T07:36:59.045Z,20.09
2018-09-23T07:39:27.313Z,20.18
2018-09-23T07:41:55.765Z,20.18
2018-09-23T07:44:24.091Z,20.09
2018-09-23T07:46:52.369Z,20.25
2018-09-23T07:49:21.639Z,20.33
2018-09-23T07:51:50.258Z,20.32
2018-09-23T07:54:18.491Z,20.34
2018-09-23T07:56:46.719Z,20.46
2018-09-23T07:59:14.924Z,20.44
2018-09-23T08:01:43.129Z,20.64
2018-09-23T08:04:12.384Z,20.61
2018-09-23T08:06:41.262Z,20.69
2018-09-23T08:09:10.137Z,20.51
2018-09-23T08:11:39.906Z,20.29
2018-09-23T08:14:09.397Z,20.47
2018-09-23T08:16:37.906Z,20.46
2018-09-23T08:19:07.465Z,20.24
2018-09-23T08:21:35.831Z,20.28
2018-09-23T08:24:04.529Z,20.37
2018-09-23T08:26:32.856Z,20.18
2018-09-23T08:29:01.270Z,20.24
2018-09-23T08:31:31.515Z,20.73
2018-09-23T08:33:59.952Z,20.59
2018-09-23T08:36:28.369Z,20.59
2018-09-23T08:38:56.761Z,20.77
2018-09-23T08:41:25.582Z,21.13
2018-09-23T08:43:53.996Z,21.30
2018-09-23T08:46:23.828Z,21.17
2018-09-23T08:48:52.413Z,21.34
2018-09-23T08:51:20.724Z,21.22
2018-09-23T08:53:51.359Z,20.96
2018-09-23T08:56:19.599Z,20.65
2018-09-23T08:58:49.887Z,20.72
2018-09-23T09:01:20.081Z,20.83
2018-09-23T09:03:49.384Z,20.93
2018-09-23T09:06:20.296Z,21.00
2018-09-23T09:08:50.870Z,20.86
2018-09-23T09:11:21.279Z,20.87
2018-09-23T09:13:51.746Z,21.28
2018-09-23T09:16:22.232Z,21.56
2018-09-23T09:18:52.754Z,21.27
2018-09-23T09:21:20.922Z,21.24
2018-09-23T09:23:49.623Z,21.34
2018-09-23T09:26:17.863Z,21.63
2018-09-23T09:31:25.223Z,21.68
2018-09-23T09:33:53.441Z,21.87
2018-09-23T09:36:21.663Z,22.08
2018-09-23T09:38:49.869Z,22.38
2018-09-23T09:41:18.405Z,22.52
2018-09-23T09:43:46.918Z,22.69
2018-09-23T09:46:15.122Z,23.19
2018-09-23T09:48:43.570Z,23.06
2018-09-23T09:51:12.051Z,22.91
2018-09-23T09:53:40.657Z,23.00
2018-09-23T09:56:08.884Z,23.21
2018-09-23T09:58:37.281Z,22.81
2018-09-23T10:01:07.097Z,22.97
2018-09-23T10:03:35.874Z,22.99
2018-09-23T10:06:04.234Z,23.38
2018-09-23T10:08:32.457Z,23.66
2018-09-23T10:11:00.932Z,23.37
2018-09-23T10:13:29.034Z,23.34
2018-09-23T10:15:57.289Z,23.67
2018-09-23T10:18:25.558Z,24.01
2018-09-23T10:20:53.755Z,24.28
2018-09-23T10:23:22.008Z,24.44
2018-09-23T10:25:50.804Z,24.23
2018-09-23T10:28:19.729Z,23.84
2018-09-23T10:30:48.436Z,24.36
2018-09-23T10:33:16.737Z,24.23
2018-09-23T10:35:45.300Z,24.16
2018-09-23T10:38:13.776Z,24.67
2018-09-23T10:40:42.040Z,24.68
2018-09-23T10:43:10.544Z,24.75
2018-09-23T10:45:39.128Z,24.91
2018-09-23T10:48:07.480Z,25.25
2018-09-23T10:50:35.775Z,25.75
2018-09-23T10:53:04.280Z,25.85
2018-09-23T10:55:33.084Z,25.63
2018-09-23T10:58:01.315Z,25.68
2018-09-23T11:00:29.659Z,25.10
2018-09-23T11:02:57.852Z,25.96
2018-09-23T11:05:26.625Z,25.45
2018-09-23T11:07:54.849Z,25.30
2018-09-23T11:10:23.079Z,25.00
2018-09-23T11:12:51.543Z,25.00
2018-09-23T11:15:19.822Z,25.46
2018-09-23T11:17:48.106Z,25.60
2018-09-23T11:20:16.358Z,25.65
2018-09-23T11:22:44.590Z,25.30
2018-09-23T11:25:13.458Z,25.93
2018-09-23T11:27:41.733Z,25.45
2018-09-23T11:30:10.221Z,25.39
2018-09-23T11:32:38.435Z,25.07
2018-09-23T11:35:07.537Z,25.37
2018-09-23T11:37:35.786Z,25.48
2018-09-23T11:42:44.152Z,24.94
2018-09-23T11:45:12.425Z,25.04
2018-09-23T11:47:40.639Z,24.84
2018-09-23T11:50:08.944Z,25.04
2018-09-23T11:52:38.081Z,25.24
2018-09-23T11:55:06.364Z,25.32
2018-09-23T11:57:34.563Z,24.88
2018-09-23T12:00:02.810Z,25.23
2018-09-23T12:02:31.485Z,25.16
2018-09-23T12:05:00.245Z,25.00
2018-09-23T12:07:28.511Z,24.98
2018-09-23T12:09:56.756Z,25.00
2018-09-23T12:12:24.940Z,25.03
2018-09-23T12:14:53.774Z,25.32
2018-09-23T12:17:21.949Z,25.36
2018-09-23T12:19:50.121Z,24.89
2018-09-23T12:22:18.922Z,25.11
2018-09-23T12:24:47.406Z,24.96
2018-09-23T12:27:15.818Z,25.36
2018-09-23T12:29:44.092Z,25.71
2018-09-23T12:32:12.644Z,25.55
2018-09-23T12:34:40.857Z,25.44
2018-09-23T12:37:09.409Z,25.86
2018-09-23T12:39:37.645Z,25.98
2018-09-23T12:42:05.951Z,26.07
2018-09-23T12:44:34.182Z,26.04
2018-09-23T12:47:02.674Z,26.01
2018-09-23T12:49:30.882Z,26.21
2018-09-23T12:51:59.363Z,26.40
2018-09-23T12:54:27.628Z,26.04
2018-09-23T12:56:55.812Z,25.90
2018-09-23T12:59:24.069Z,26.30
2018-09-23T13:01:52.336Z,26.40
2018-09-23T13:04:20.631Z,26.82
2018-09-23T13:06:49.174Z,27.59
2018-09-23T13:09:17.428Z,28.19
2018-09-23T13:11:52.398Z,28.11
2018-09-23T13:14:20.949Z,28.99
2018-09-23T13:16:49.187Z,29.99
2018-09-23T13:19:17.514Z,28.84
2018-09-23T13:21:45.696Z,28.05
2018-09-23T13:24:14.226Z,27.54
2018-09-23T13:26:42.881Z,27.43
2018-09-23T13:29:11.068Z,27.23
2018-09-23T13:31:39.412Z,26.88
2018-09-23T13:34:07.640Z,26.59
2018-09-23T13:36:35.855Z,26.58
2018-09-23T13:39:05.391Z,27.09
2018-09-23T13:41:33.677Z,26.83
2018-09-23T13:44:01.960Z,26.32
2018-09-23T13:46:30.250Z,26.24
2018-09-23T13:48:58.603Z,25.90
2018-09-23T13:51:27.077Z,26.23
2018-09-23T13:53:55.339Z,25.79
2018-09-23T13:56:23.605Z,25.78
2018-09-23T13:58:51.881Z,25.60
2018-09-23T14:01:20.255Z,25.21
2018-09-23T14:03:48.921Z,25.16
2018-09-23T14:06:17.159Z,25.29
2018-09-23T14:08:45.489Z,25.33
2018-09-23T14:11:13.794Z,25.29
2018-09-23T14:13:42.288Z,25.38
2018-09-23T14:16:10.599Z,26.08
2018-09-23T14:18:39.636Z,26.13
2018-09-23T14:21:08.156Z,26.51
2018-09-23T14:23:36.738Z,27.24
2018-09-23T14:26:05.253Z,28.65
2018-09-23T14:28:33.484Z,27.51
2018-09-23T14:31:01.775Z,28.13
2018-09-23T14:33:30.087Z,28.41
2018-09-23T14:35:58.832Z,28.77
2018-09-23T14:38:27.097Z,27.79
2018-09-23T14:40:55.741Z,26.97
2018-09-23T14:43:24.919Z,26.36
2018-09-23T14:45:53.524Z,26.24
2018-09-23T14:48:22.010Z,26.02
2018-09-23T14:50:50.331Z,25.99
2018-09-23T14:53:19.084Z,25.78
2018-09-23T14:55:47.603Z,25.74
2018-09-23T14:58:16.069Z,25.78
2018-09-23T15:00:44.317Z,25.34
2018-09-23T15:03:12.621Z,25.17
2018-09-23T15:05:41.124Z,25.43
2018-09-23T15:08:10.328Z,25.68
2018-09-23T15:10:38.656Z,25.77
2018-09-23T15:13:06.888Z,25.20
2018-09-23T15:15:35.223Z,25.73
2018-09-23T15:18:03.759Z,26.25
2018-09-23T15:20:32.037Z,25.34
2018-09-23T15:23:00.613Z,25.39
2018-09-23T15:25:28.884Z,26.17
2018-09-23T15:27:57.344Z,26.94
2018-09-23T15:30:25.536Z,27.52
2018-09-23T15:32:53.892Z,29.72
2018-09-23T15:35:22.760Z,30.11
2018-09-23T15:37:50.958Z,30.03
2018-09-23T15:40:19.174Z,29.22
2018-09-23T15:42:47.426Z,29.15
2018-09-23T15:45:15.628Z,29.53
2018-09-23T15:47:44.028Z,29.47
2018-09-23T15:50:12.726Z,28.13
2018-09-23T15:52:41.388Z,27.35
2018-09-23T15:55:10.119Z,26.84
2018-09-23T15:57:38.416Z,25.98
2018-09-23T16:00:07.477Z,25.34
2018-09-23T16:02:35.730Z,24.94
2018-09-23T16:05:04.314Z,24.74
2018-09-23T16:07:32.524Z,24.49
2018-09-23T16:10:00.703Z,24.42
2018-09-23T16:12:29.208Z,24.39
2018-09-23T16:14:57.561Z,24.41
2018-09-23T16:17:25.924Z,24.37
2018-09-23T16:19:55.066Z,24.46
2018-09-23T16:22:23.989Z,24.47
2018-09-23T16:24:52.370Z,24.39
2018-09-23T16:27:20.564Z,24.36
2018-09-23T16:29:49.322Z,24.38
2018-09-23T16:32:17.762Z,24.07
2018-09-23T16:34:45.925Z,23.56
2018-09-23T16:37:14.249Z,22.83
2018-09-23T16:39:42.580Z,22.41
2018-09-23T16:42:11.110Z,22.19
2018-09-23T16:44:39.662Z,22.18
2018-09-23T16:47:07.912Z,21.00
2018-09-23T16:49:38.840Z,19.88
2018-09-23T16:52:08.356Z,17.32
2018-09-23T16:54:36.994Z,16.18
2018-09-23T16:57:05.677Z,16.11
2018-09-23T16:59:33.968Z,16.05
2018-09-23T17:02:02.405Z,16.03
2018-09-23T17:04:30.696Z,16.10
2018-09-23T17:06:58.915Z,16.22
2018-09-23T17:09:27.195Z,16.20
2018-09-23T17:11:55.570Z,16.24
2018-09-23T17:14:24.401Z,16.22
2018-09-23T17:16:58.863Z,16.14
2018-09-23T17:19:27.413Z,16.20
2018-09-23T17:21:56.073Z,16.08
2018-09-23T17:24:25.215Z,16.01
2018-09-23T17:26:53.430Z,15.94
2018-09-23T17:29:21.673Z,15.83
2018-09-23T17:31:50.088Z,15.75
2018-09-23T17:34:18.583Z,15.74
2018-09-23T17:36:47.509Z,15.70
2018-09-23T17:39:15.783Z,15.74
2018-09-23T17:41:44.049Z,15.71
2018-09-23T17:44:12.661Z,15.69
2018-09-23T17:46:41.116Z,15.70
2018-09-23T17:49:09.301Z,15.63
2018-09-23T17:51:37.937Z,15.60
2018-09-23T17:54:06.540Z,15.65
2018-09-23T17:56:35.069Z,15.63
2018-09-23T17:59:04.410Z,15.63
2018-09-23T18:01:32.693Z,15.61
2018-09-23T18:04:01.433Z,15.61
2018-09-23T18:06:29.652Z,15.61
2018-09-23T18:08:58.488Z,15.45
2018-09-23T18:11:27.672Z,15.38
2018-09-23T18:13:55.877Z,15.38
2018-09-23T18:16:24.661Z,15.41
2018-09-23T18:18:53.104Z,15.43
2018-09-23T18:21:21.745Z,15.42
2018-09-23T18:23:50.568Z,15.44
2018-09-23T18:26:18.862Z,15.48
2018-09-23T18:28:47.109Z,15.44
2018-09-23T18:31:15.638Z,14.99
2018-09-23T18:33:44.181Z,14.17
2018-09-23T18:36:12.509Z,13.93
2018-09-23T18:38:41.261Z,13.76
2018-09-23T18:41:10.185Z,13.69
2018-09-23T18:43:38.477Z,13.83
2018-09-23T18:46:06.846Z,13.71
2018-09-23T18:48:35.137Z,13.62
2018-09-23T18:51:03.576Z,13.38
2018-09-23T18:53:32.098Z,13.22
2018-09-23T18:56:00.713Z,13.04
2018-09-23T18:58:28.932Z,12.98
2018-09-23T19:00:57.443Z,12.89
2018-09-23T19:03:26.021Z,12.82
2018-09-23T19:05:54.588Z,12.77
2018-09-23T19:08:23.767Z,12.78
2018-09-23T19:10:52.380Z,12.75
2018-09-23T19:13:26.519Z,12.70
2018-09-23T19:16:00.692Z,12.64
2018-09-23T19:18:29.587Z,12.62
2018-09-23T19:20:58.666Z,12.59
2018-09-23T19:23:26.985Z,12.54
2018-09-23T19:25:55.784Z,12.55
2018-09-23T19:28:24.823Z,12.51
2018-09-23T19:30:53.588Z,12.47
2018-09-23T19:33:22.125Z,12.42
2018-09-23T19:35:51.316Z,12.37
2018-09-23T19:38:20.612Z,12.34
2018-09-23T19:40:49.192Z,12.42
2018-09-23T19:43:17.438Z,12.39
2018-09-23T19:45:47.176Z,12.39
2018-09-23T19:48:16.051Z,12.46
2018-09-23T19:50:44.320Z,12.42
2018-09-23T19:53:12.635Z,12.37
2018-09-23T19:55:41.617Z,12.41
2018-09-23T19:58:09.954Z,12.39
2018-09-23T20:00:39.650Z,12.38
2018-09-23T20:03:08.069Z,12.44
2018-09-23T20:05:36.372Z,12.44
2018-09-23T20:08:04.681Z,12.48
2018-09-23T20:10:37.510Z,12.49
2018-09-23T20:13:06.915Z,12.44
2018-09-23T20:15:39.457Z,12.34
2018-09-23T20:18:08.626Z,12.29
2018-09-23T20:20:37.303Z,12.18
2018-09-23T20:23:05.810Z,12.13
2018-09-23T20:25:34.708Z,12.16
2018-09-23T20:28:04.761Z,12.21
2018-09-23T20:30:33.164Z,12.12
2018-09-23T20:33:04.694Z,12.08
2018-09-23T20:35:33.308Z,12.06
2018-09-23T20:38:03.443Z,12.04
2018-09-23T20:40:32.675Z,11.97
2018-09-23T20:43:03.989Z,12.01
2018-09-23T20:45:42.643Z,12.02
2018-09-23T20:48:11.053Z,12.15
2018-09-23T20:50:39.955Z,12.09
2018-09-23T20:53:08.569Z,12.15
2018-09-23T20:55:38.426Z,12.20
2018-09-23T20:58:07.366Z,12.15
2018-09-23T21:00:37.073Z,12.09
2018-09-23T21:03:09.535Z,11.98
2018-09-23T21:05:37.989Z,11.96
2018-09-23T21:08:06.679Z,11.97
2018-09-23T21:10:35.006Z,11.95
2018-09-23T21:13:04.579Z,11.83
2018-09-23T21:15:33.672Z,11.82
2018-09-23T21:18:02.889Z,11.78
2018-09-23T21:20:31.919Z,11.65
2018-09-23T21:23:00.654Z,11.52
2018-09-23T21:25:29.098Z,11.46
2018-09-23T21:27:58.564Z,11.35
2018-09-23T21:30:27.789Z,11.28
2018-09-23T21:35:34.962Z,11.18
2018-09-23T21:38:04.359Z,11.17
2018-09-23T21:40:34.382Z,11.19
2018-09-23T21:43:04.214Z,11.27
2018-09-23T21:45:32.622Z,11.14
2018-09-23T21:48:03.087Z,11.09
2018-09-23T21:50:31.313Z,11.08
2018-09-23T21:53:00.409Z,10.99
2018-09-23T21:55:30.324Z,10.90
2018-09-23T21:58:00.367Z,10.94
2018-09-23T22:00:34.793Z,11.08
2018-09-23T22:03:03.961Z,11.23
2018-09-23T22:05:32.202Z,11.30
2018-09-23T22:08:00.720Z,11.43
2018-09-23T22:10:29.876Z,11.36
2018-09-23T22:12:58.833Z,11.40
2018-09-23T22:15:28.711Z,11.32
2018-09-23T22:17:58.956Z,11.44
2018-09-23T22:20:27.870Z,11.44
2018-09-23T22:22:56.612Z,11.51
2018-09-23T22:25:26.250Z,11.45
2018-09-23T22:27:55.349Z,11.46
2018-09-23T22:30:24.090Z,11.52
2018-09-23T22:32:52.693Z,11.43
2018-09-23T22:35:21.268Z,11.48
2018-09-23T22:37:50.568Z,11.54
2018-09-23T22:40:19.965Z,11.50
2018-09-23T22:42:48.216Z,11.49
2018-09-23T22:47:52.444Z,11.52
2018-09-23T22:50:21.195Z,11.54
2018-09-23T22:52:50.334Z,11.55
2018-09-23T22:55:19.259Z,11.41
2018-09-23T22:57:48.668Z,11.50
2018-09-23T23:00:18.605Z,11.42
2018-09-23T23:02:47.248Z,11.37
2018-09-23T23:05:15.632Z,11.49
2018-09-23T23:07:44.055Z,11.48
2018-09-23T23:10:12.582Z,11.51
2018-09-23T23:12:41.503Z,11.42
2018-09-23T23:15:10.672Z,11.28
2018-09-23T23:17:39.046Z,11.29
2018-09-23T23:20:08.432Z,11.23
2018-09-23T23:22:36.754Z,11.14
2018-09-23T23:25:05.388Z,11.07
2018-09-23T23:27:33.899Z,11.03
2018-09-23T23:30:03.016Z,11.11
2018-09-23T23:32:32.524Z,10.98
2018-09-23T23:35:00.883Z,10.96
2018-09-23T23:37:29.336Z,10.88
2018-09-23T23:39:57.811Z,10.79
2018-09-23T23:42:26.488Z,10.89
2018-09-23T23:44:54.860Z,10.66
2018-09-23T23:47:24.868Z,10.67
2018-09-23T23:49:53.558Z,10.63
2018-09-23T23:52:22.063Z,10.66
2018-09-23T23:54:50.449Z,10.68
2018-09-23T23:57:19.544Z,10.60
2018-09-23T23:59:48.716Z,10.74
